Tiempo atmosférico en la estación meteorológica de Taramundi, Ouria, Asturias (335 m.)



Fecha
DESCASC
Temp. máxima en grados centígrados (hora)
DESCASC
Temp. mínima en grados centígrados (hora)
DESCASC
Temp. media en grados centígrados
DESCASC
Racha de viento máxima en m/sg (hora)
DESCASC
Velocidad máxima media en intervalos de 10 minutos(hora)
DESCASC
Precipitaciones diarias en mm
DESCASC
Precipitaciones de 00:00 a 06:00 en mm
DESCASC
Precipitaciones de 06:00 a 12:00 en mm
DESCASC
Precipitaciones de 12:00 a 18:00 en mm
DESCASC
Precipitaciones de 18:00 a 24:00 en mm
DESCASC
18-10-2019 15.5 (18:10) 11.7 (00:00) 13.6 14.17 (17:00) 8.61 (17:20) 4.8 0 0 0 4.8
12-11-2019 13.5 (22:10) 7.6 (00:00) 10.5 19.72 (15:00) 10.83 (15:00) 25 0 0 6.4 18.6
02-11-2019 15.3 (00:00) 11.2 (00:00) 13.3 24.72 (22:30) 14.17 (23:50) 1.6 0 0.2 0.4 1
01-11-2019 20 (14:20) 15.3 (00:00) 17.7 18.33 (15:00) 11.67 (08:20) 4.2 0 0.6 0.6 3
31-10-2019 19.9 (14:40) 15.8 (07:50) 17.8 13.33 (23:20) 7.78 (18:20) 1.4 0 0 0 1.4
30-10-2019 21.3 (14:20) 15.8 (00:00) 18.5 15.83 (12:40) 9.17 (10:30) 1.8 0 1.2 0.6 0
28-10-2019 22.7 (14:50) 14 (00:00) 18.4 11.67 (17:30) 6.39 (17:30) 0 0 0 0 0
27-10-2019 22.6 (13:50) 15 (00:00) 18.8 10.83 (02:10) 6.11 (02:10) 0 0 0 0 0
25-10-2019 21 (16:50) 9.4 (00:00) 15.2 15.56 (03:20) 8.06 (03:00) 0 0 0 0 0
24-10-2019 16.3 (14:10) 8.8 (00:00) 12.5 17.78 (10:40) 10 (10:30) 0.8 0 0.6 0.2 0
26-10-2019 25.1 (16:30) 13.2 (00:00) 19.2 16.67 (03:30) 10.56 (03:20) 0 0 0 0 0
23-10-2019 12.9 (15:10) 8.6 (00:00) 10.8 10.83 (15:00) 7.22 (15:00) 0 0 0 0 0
22-10-2019 13.8 (16:10) 4.9 (00:00) 9.4 9.72 (15:40) 6.94 (15:30) 2.2 0 0.2 0 2
11-11-2019 11.1 (14:00) 7 (20:10) 9.1 12.78 (08:10) 7.22 (01:10) 5.8 0.4 5.2 0.2 0
06-11-2019 13.1 (14:20) 8.3 (00:00) 10.7 17.5 (13:30) 10.56 (13:50) 4.4 0.4 0 0.4 3.6
09-11-2019 13.7 (12:40) 6.6 (00:00) 10.1 22.22 (08:20) 12.22 (08:50) 6 0.8 0 2.2 3
07-11-2019 9.2 (00:30) 5 (00:00) 7.1 13.89 (10:20) 7.5 (10:20) 8.6 1 2.4 4 1.2
29-10-2019 20.9 (14:30) 14.8 (00:00) 17.8 11.94 (08:50) 6.94 (10:30) 1.6 1.6 0 0 0
05-11-2019 11.5 (13:00) 8 (00:00) 9.8 12.5 (00:10) 7.5 (00:20) 14.2 1.8 2.2 7.4 2.8
14-11-2019 8 (00:00) 3.5 (00:00) 5.8 23.61 (20:40) 11.39 (19:30) 44.6 3 5.4 18.6 17.6
10-11-2019 7.7 (12:20) 6.2 (00:00) 6.9 9.44 (23:40) 6.39 (23:40) 22.6 3.2 8.6 6.2 4.6
04-11-2019 14.8 (00:20) 8.4 (00:00) 11.6 21.39 (03:30) 12.78 (05:10) 7 3.6 0.4 1.6 1.4
03-11-2019 15.2 (21:10) 9.2 (00:00) 12.2 25.56 (00:20) 14.17 (00:10) 5 4.2 0.2 0.4 0.2
21-10-2019 12.6 (13:20) 6.7 (00:00) 9.7 6.67 (14:00) 4.72 (14:30) 8.6 5.2 1.4 0.6 1.4
19-10-2019 12.9 (00:00) 9.4 (00:00) 11.1 10.28 (00:10) 6.11 (00:10) 28.4 5.6 5.6 7.2 10
08-11-2019 12 (14:20) 4.7 (00:00) 8.3 11.39 (00:20) 5.28 (02:40) 12.2 5.8 6 0.4 0
13-11-2019 12.6 (00:00) 8 (00:00) 10.3 19.72 (19:20) 10.83 (20:40) 16 7 3.2 0 5.8
20-10-2019 11.8 (16:30) 8.2 (00:00) 10 5.28 (00:30) 3.33 (00:50) 18.6 7.6 3.6 6.2 1.2
16-11-2019 9 (14:10) 3.3 (00:00) 6.1 11.11 (18:50) 6.11 (21:20) 11.2 10.4 0.6 0 0.2
15-11-2019 5.9 (00:00) 1.5 (00:00) 3.7 17.78 (17:50) 8.89 (17:40) 67.8 14.2 20.6 28 5

Gráficas

Temp. máximas Temp. mínimas Temp. medias Precipitaciones Rachas de viento máximas Velocidades máximas media en intervalos de 10 minutos

Datos horarios

Fecha y hora oficial Temperatura (ºC) Velocidad del viento (km/h) Dirección del viento Racha (km/h) Dirección de racha Precipitación (mm) Presión (hPa) Tendencia (hPa) Humedad (%)
2019-11-16 23:00:00 8.1 21 Sur 39 Sudoeste 0 -- -- 93
2019-11-16 22:00:00 7.7 17 Sur 39 Sur 0 -- -- 95
2019-11-16 21:00:00 7.5 19 Sur 36 Sur 0 -- -- 97
2019-11-16 20:00:00 7.2 17 Sur 32 Sudoeste 0 -- -- 98
2019-11-16 19:00:00 7.1 21 Sur 40 Sur 0.2 -- -- 98
2019-11-16 18:00:00 7.2 19 Sur 35 Sur 0 -- -- 98
2019-11-16 17:00:00 7.4 15 Sur 33 Sur 0 -- -- 98
2019-11-16 16:00:00 7.7 18 Sur 28 Sur 0 -- -- 99
2019-11-16 15:00:00 7.9 12 Sur 28 Sur 0 -- -- 100
2019-11-16 14:00:00 8.5 18 Sur 27 Sur 0 -- -- 100
2019-11-16 13:00:00 7.1 15 Sur 28 Sur 0 -- -- 100
2019-11-16 12:00:00 6.2 12 Sur 24 Sudoeste 0 -- -- 100
2019-11-16 11:00:00 6 16 Sur 29 Sudoeste 0 -- -- 100
2019-11-16 10:00:00 5.2 13 Sur 18 Sur 0 -- -- 100
2019-11-16 09:00:00 3.8 9 Sur 18 Sur 0 -- -- 100
2019-11-16 08:00:00 3.8 7 Sur 14 Sudeste 0.2 -- -- 100
2019-11-16 07:00:00 4.1 9 Sur 14 Sur 0.4 -- -- 100
2019-11-16 06:00:00 4.3 7 Sur 17 Sudeste 0.8 -- -- 100
2019-11-16 05:00:00 4 6 Sur 12 Sur 2 -- -- 100
2019-11-16 04:00:00 4.1 4 Sur 12 Sur 1.2 -- -- 100
2019-11-16 03:00:00 4 5 Sur 17 Sur 1.6 -- -- 100
2019-11-16 02:00:00 3.7 8 Sur 14 Sudoeste 0.6 -- -- 100
2019-11-16 01:00:00 3.4 5 Sur 36 Norte 4.2 -- -- 100
2019-11-16 00:00:00 4.4 5 Sur 21 Norte 1.8 -- -- 100
2019-11-15 23:00:00 4.5 4 Sur 9 Sudoeste 0.4 -- -- 100
2019-11-15 22:00:00 4.5 5 Sur 28 Norte 1 -- -- 100
2019-11-15 21:00:00 4.7 3 Nordeste 17 Nordeste 0.4 -- -- 100
2019-11-15 20:00:00 4.6 0 Calma 26 Norte 0.2 -- -- 100
2019-11-15 19:00:00 4.8 5 Norte 41 Norte 1.2 -- -- 100
2019-11-15 18:00:00 4.7 17 Norte 64 Norte 3.4 -- -- 100
2019-11-15 17:00:00 5.7 22 Norte 39 Nordeste 3 -- -- 100
2019-11-15 16:00:00 2.7 5 Sur 15 Sudeste 6.4 -- -- 100
2019-11-15 15:00:00 3.5 8 Nordeste 29 Nordeste 5.8 -- -- 100
2019-11-15 14:00:00 4.9 16 Nordeste 42 Nordeste 5.2 -- -- 100
2019-11-15 13:00:00 4.1 9 Norte 22 Norte 4.2 -- -- 100
2019-11-15 12:00:00 1.6 9 Sur 16 Sur 6 -- -- 100
2019-11-15 11:00:00 1.6 12 Sur 19 Sur 8.2 -- -- 100
2019-11-15 10:00:00 3.8 8 Norte 19 Norte 4.4 -- -- 100
2019-11-15 09:00:00 4.2 7 Norte 28 Norte 0.4 -- -- 100
2019-11-15 08:00:00 4.1 4 Sur 20 Nordeste 0 -- -- 100
2019-11-15 07:00:00 4 4 Sur 43 Norte 1.6 -- -- 100
2019-11-15 06:00:00 4.5 5 Oeste 18 Norte 0 -- -- 100
2019-11-15 05:00:00 4.2 7 Sudoeste 40 Norte 2.6 -- -- 100
2019-11-15 04:00:00 4.7 15 Norte 36 Norte 1.6 -- -- 100
2019-11-15 03:00:00 4.4 5 Sur 55 Norte 3.4 -- -- 100
2019-11-15 02:00:00 4.6 4 Noroeste 50 Norte 1.8 -- -- 100
2019-11-15 01:00:00 4.6 14 Norte 48 Nordeste 4.8 -- -- 100
2019-11-15 00:00:00 5.9 12 Norte 41 Norte 0 -- -- 100
2019-11-14 23:00:00 5.4 11 Noroeste 28 Norte 0.2 -- -- 100
2019-11-14 22:00:00 4.4 23 Norte 66 Norte 4.4 -- -- 100
2019-11-14 21:00:00 4.9 26 Norte 85 Norte 10.6 -- -- 100
2019-11-14 20:00:00 6 24 Norte 71 Norte 1.2 -- -- 100
2019-11-14 19:00:00 6.6 35 Norte 72 Norte 1.2 -- -- 100
2019-11-14 18:00:00 6.5 15 Norte 62 Norte 1 -- -- 100
2019-11-14 17:00:00 6.7 26 Norte 56 Nordeste 0.8 -- -- 100
2019-11-14 16:00:00 6.6 19 Norte 51 Nordeste 0.6 -- -- 100
2019-11-14 15:00:00 6.2 24 Norte 48 Norte 6.4 -- -- 100
2019-11-14 14:00:00 5 8 Este 34 Norte 8.2 -- -- 99
2019-11-14 13:00:00 4.8 17 Sur 32 Sur 1.6 -- -- 98
2019-11-14 12:00:00 4.4 19 Sur 39 Sur 1 -- -- 97
2019-11-14 11:00:00 3.9 18 Sur 61 Sur 3.2 -- -- 98
2019-11-14 10:00:00 4.5 31 Sur 53 Sur 1 -- -- 96
2019-11-14 09:00:00 4.5 31 Sur 53 Sur 0.2 -- -- 95
2019-11-14 08:00:00 4.1 21 Sur 49 Sur 0 -- -- 94
2019-11-14 07:00:00 3.8 20 Sur 41 Sur 0 -- -- 96
2019-11-14 06:00:00 3.8 14 Sur 35 Sudeste 0.2 -- -- 97
2019-11-14 05:00:00 4.2 15 Sudeste 33 Sudeste 0.4 -- -- 96
2019-11-14 04:00:00 4.3 10 Sur 22 Sur 0 -- -- 97
2019-11-14 03:00:00 5.1 17 Sudeste 35 Sur 0.8 -- -- 98
2019-11-14 02:00:00 5.9 9 Sudeste 24 Sudeste 1 -- -- 98
2019-11-14 01:00:00 6.5 14 Sur 27 Sudeste 0.6 -- -- 98
2019-11-14 00:00:00 8 14 Sudeste 32 Nordeste 1 -- -- 97
2019-11-13 23:00:00 8.7 4 Sur 25 Sur 2 -- -- 98
2019-11-13 22:00:00 9 26 Sur 59 Sur 2.6 -- -- 96
2019-11-13 21:00:00 9.9 37 Sur 67 Sur 0.2 -- -- 89
2019-11-13 20:00:00 10.1 30 Sur 71 Sur 0 -- -- 88
2019-11-13 19:00:00 10.5 30 Sur 56 Sur 0 -- -- 88
2019-11-13 18:00:00 10.7 27 Sur 47 Sudeste 0 -- -- 94
2019-11-13 17:00:00 10.6 21 Sur 46 Sur 0 -- -- 95
2019-11-13 16:00:00 10.9 24 Sur 40 Sur 0 -- -- 96
2019-11-13 15:00:00 11.4 21 Sur 36 Sur 0 -- -- 100
2019-11-13 14:00:00 9.3 7 Sur 14 Sur 0 -- -- 100
2019-11-13 13:00:00 9.7 9 Sudoeste 21 Oeste 0 -- -- 100
2019-11-13 12:00:00 9.8 5 Sur 10 Nordeste 0 -- -- 100
2019-11-13 11:00:00 9.6 3 Sur 5 Sur 0.4 -- -- 100
2019-11-13 10:00:00 9.2 0 Calma 5 Sur 0.2 -- -- 100
2019-11-13 09:00:00 8.9 5 Norte 15 Norte 0.4 -- -- 100
2019-11-13 08:00:00 9 12 Norte 22 Norte 1.4 -- -- 100
2019-11-13 07:00:00 9.1 12 Norte 32 Norte 0.8 -- -- 100
2019-11-13 06:00:00 9.6 20 Norte 34 Norte 0.8 -- -- 100
2019-11-13 05:00:00 10 22 Norte 38 Norte 1.6 -- -- 100
2019-11-13 04:00:00 10.2 19 Norte 34 Norte 2.4 -- -- 100
2019-11-13 03:00:00 10.5 18 Norte 40 Norte 1.4 -- -- 100
2019-11-13 02:00:00 11.4 21 Norte 32 Norte 0.4 -- -- 100
2019-11-13 01:00:00 11.9 3 Sur 31 Sudeste 0.4 -- -- 100
2019-11-13 00:00:00 12.6 8 Sur 31 Norte 12.4 -- -- 100
2019-11-12 23:00:00 13.5 4 Sur 18 Sur 3.8 -- -- 100
2019-11-12 22:00:00 13.4 9 Sur 23 Sur 0.4 -- -- 100
2019-11-12 21:00:00 13.1 12 Sur 27 Sur 0.4 -- -- 99
2019-11-12 20:00:00 12.7 13 Sur 34 Sur 0.8 -- -- 99
2019-11-12 19:00:00 12.5 16 Sur 54 Sur 0.8 -- -- 97
2019-11-12 18:00:00 11.4 19 Sur 62 Sur 2 -- -- 98
2019-11-12 17:00:00 11.1 35 Sur 68 Sur 2.6 -- -- 96
2019-11-12 16:00:00 11.1 37 Sur 63 Sur 1.4 -- -- 94
2019-11-12 15:00:00 11.5 39 Sur 71 Sur 0.2 -- -- 90
2019-11-12 14:00:00 10.6 29 Sur 62 Sur 0.2 -- -- 92
2019-11-12 13:00:00 10 31 Sur 54 Sur 0 -- -- 94
2019-11-12 12:00:00 9.4 23 Sur 41 Sur 0 -- -- 94
2019-11-12 11:00:00 9.3 20 Sur 33 Sur 0 -- -- 95
2019-11-12 10:00:00 8.7 18 Sur 33 Sudoeste 0 -- -- 97
2019-11-12 09:00:00 8.2 13 Sur 28 Sur 0 -- -- 97
2019-11-12 08:00:00 8 14 Sur 25 Sur 0 -- -- 97
2019-11-12 07:00:00 7.8 12 Sur 24 Sur 0 -- -- 96
2019-11-12 06:00:00 8.2 11 Sur 25 Sudoeste 0 -- -- 93
2019-11-12 05:00:00 8.2 9 Sur 20 Sur 0 -- -- 93
2019-11-12 04:00:00 8.4 9 Sur 26 Sur 0 -- -- 92
2019-11-12 03:00:00 8.1 12 Sur 22 Sur 0 -- -- 94
2019-11-12 02:00:00 8.1 10 Sur 19 Sur 0 -- -- 93
2019-11-12 01:00:00 7.8 8 Sur 14 Sur 0 -- -- 95
2019-11-12 00:00:00 7.6 5 Sur 13 Sur 0 -- -- 96
2019-11-11 23:00:00 7.5 5 Sur 10 Sur 0 -- -- 96
2019-11-11 22:00:00 7.7 7 Sur 10 Sur 0 -- -- 95
2019-11-11 21:00:00 7.3 4 Sur 7 Sur 0 -- -- 95
2019-11-11 20:00:00 7.1 4 Sur 6 Sudoeste 0 -- -- 94
2019-11-11 19:00:00 7.5 2 Sur 5 Sur 0 -- -- 92
2019-11-11 18:00:00 8.6 0 Calma 13 Norte 0 -- -- 90
2019-11-11 17:00:00 10.2 10 Norte 21 Norte 0 -- -- 90
2019-11-11 16:00:00 10.3 17 Norte 27 Norte 0 -- -- 87
2019-11-11 15:00:00 11.1 17 Norte 26 Norte 0 -- -- 85
2019-11-11 14:00:00 11.1 12 Norte 27 Norte 0.2 -- -- 90
2019-11-11 13:00:00 10.8 13 Norte 22 Norte 0 -- -- 89
2019-11-11 12:00:00 10.1 14 Norte 23 Norte 0 -- -- 97
2019-11-11 11:00:00 10.1 7 Norte 20 Norte 0 -- -- 100
2019-11-11 10:00:00 9.9 18 Norte 37 Norte 0.6 -- -- 100
2019-11-11 09:00:00 10.7 18 Norte 46 Norte 1 -- -- 100
2019-11-11 08:00:00 10.7 9 Norte 18 Norte 3.2 -- -- 100
2019-11-11 07:00:00 10 8 Sur 28 Sur 0.4 -- -- 100
2019-11-11 06:00:00 10.3 17 Sur 27 Sur 0 -- -- 99
2019-11-11 05:00:00 9.7 18 Sur 31 Sur 0.4 -- -- 99
2019-11-11 04:00:00 10 18 Sur 37 Sur 0 -- -- 96
2019-11-11 03:00:00 9.8 21 Sur 37 Sur 0 -- -- 97
2019-11-11 02:00:00 9.2 23 Sur 37 Sur 0 -- -- 97
2019-11-11 01:00:00 8.1 23 Sur 35 Sur 0 -- -- 100
2019-11-11 00:00:00 7.2 16 Sur 34 Sur 0.4 -- -- 100
2019-11-10 23:00:00 7 15 Sur 26 Sur 0.6 -- -- 100
2019-11-10 22:00:00 6.7 14 Sur 23 Sur 0.4 -- -- 100
2019-11-10 21:00:00 6.5 13 Sur 20 Sur 0.6 -- -- 100
2019-11-10 20:00:00 6.5 8 Sur 14 Sur 1.2 -- -- 100
2019-11-10 19:00:00 6.6 7 Sur 18 Sur 1.4 -- -- 100
2019-11-10 18:00:00 6.7 9 Sur 13 Sur 1.2 -- -- 100
2019-11-10 17:00:00 7.1 6 Sur 19 Sudeste 0.6 -- -- 100
2019-11-10 16:00:00 7.4 11 Sudeste 21 Sudeste 1.2 -- -- 100
2019-11-10 15:00:00 7.6 6 Sur 15 Sur 1.2 -- -- 100
2019-11-10 14:00:00 7.6 5 Sur 18 Sudeste 1.2 -- -- 100
2019-11-10 13:00:00 7.6 8 Sudeste 25 Este 0.8 -- -- 100
2019-11-10 12:00:00 7.6 10 Sur 20 Sur 2.2 -- -- 100
2019-11-10 11:00:00 7.3 5 Sur 19 Nordeste 1.8 -- -- 100
2019-11-10 10:00:00 7.2 5 Sur 29 Este 1.6 -- -- 100
2019-11-10 09:00:00 6.7 6 Sur 12 Sur 1.6 -- -- 100
2019-11-10 08:00:00 7 7 Sudeste 17 Sudeste 1.2 -- -- 100
2019-11-10 07:00:00 6.7 8 Sur 23 Sudeste 0.2 -- -- 99
2019-11-10 06:00:00 6.3 9 Sur 16 Sur 0 -- -- 100
2019-11-10 05:00:00 6.6 11 Sur 22 Sudeste 0.4 -- -- 99
2019-11-10 04:00:00 6.3 8 Sur 14 Sudeste 0.8 -- -- 100
2019-11-10 03:00:00 6.4 7 Sur 15 Sur 1.8 -- -- 100
2019-11-10 02:00:00 6.5 5 Sur 24 Sudeste 0 -- -- 98
2019-11-10 01:00:00 6.7 7 Sur 12 Sudoeste 0.2 -- -- 99
2019-11-10 00:00:00 6.6 6 Sur 13 Sur 0 -- -- 98
2019-11-09 23:00:00 7.2 5 Sur 37 Nordeste 2 -- -- 94
2019-11-09 22:00:00 8.1 3 Sudeste 22 Nordeste 0 -- -- 90
2019-11-09 21:00:00 8.7 13 Nordeste 28 Norte 0 -- -- 90
2019-11-09 20:00:00 8.6 8 Sur 38 Norte 1 -- -- 95
2019-11-09 19:00:00 9.6 10 Sudeste 37 Sudeste 0 -- -- 91
2019-11-09 18:00:00 9.4 10 Sudeste 24 Sur 0 -- -- 96
2019-11-09 17:00:00 9.7 9 Sur 26 Nordeste 2.2 -- -- 91
2019-11-09 16:00:00 11.8 12 Sur 22 Sur 0 -- -- 76
2019-11-09 15:00:00 12.5 10 Sudeste 21 Sur 0 -- -- 74
2019-11-09 14:00:00 12.9 7 Sudeste 24 Nordeste 0 -- -- 77
2019-11-09 13:00:00 13.6 10 Sur 34 Sudeste 0 -- -- 82
2019-11-09 12:00:00 12.9 19 Sur 37 Sudeste 0 -- -- 85
2019-11-09 11:00:00 12.1 27 Sur 48 Sur 0 -- -- 86
2019-11-09 10:00:00 11.6 27 Sur 57 Sur 0 -- -- 87
2019-11-09 09:00:00 10.7 36 Sur 80 Sur 0 -- -- 87
2019-11-09 08:00:00 10.4 38 Sur 65 Sur 0 -- -- 87
2019-11-09 07:00:00 9.8 30 Sur 62 Sur 0 -- -- 89
2019-11-09 06:00:00 8.7 33 Sur 63 Sur 0.4 -- -- 93
2019-11-09 05:00:00 8 22 Sur 35 Sur 0.4 -- -- 93
2019-11-09 04:00:00 9.2 13 Sur 42 Sudoeste 0 -- -- 84
2019-11-09 03:00:00 8.8 18 Sur 37 Sur 0 -- -- 87
2019-11-09 02:00:00 8.4 16 Sur 32 Sur 0 -- -- 89
2019-11-09 01:00:00 8.5 16 Sur 27 Sur 0 -- -- 89
2019-11-09 00:00:00 8.4 15 Sur 27 Sur 0 -- -- 88
2019-11-08 23:00:00 8.6 9 Sur 25 Sudoeste 0 -- -- 88
2019-11-08 22:00:00 8.3 10 Sur 18 Sur 0 -- -- 90
2019-11-08 21:00:00 7.7 8 Sur 13 Sur 0 -- -- 94
2019-11-08 20:00:00 7.4 5 Sur 11 Sur 0 -- -- 93
2019-11-08 19:00:00 7.8 6 Sur 20 Sudeste 0 -- -- 87
2019-11-08 18:00:00 9.5 10 Sudeste 22 Este 0 -- -- 83
2019-11-08 17:00:00 10.7 6 Sur 17 Este 0 -- -- 77
2019-11-08 16:00:00 10.9 6 Sudeste 22 Nordeste 0 -- -- 78
2019-11-08 15:00:00 11.4 7 Sudeste 26 Sudeste 0.2 -- -- 82
2019-11-08 14:00:00 11.5 12 Sudeste 22 Sudeste 0.2 -- -- 90
2019-11-08 13:00:00 9.8 10 Sudeste 22 Sudeste 0 -- -- 95
2019-11-08 12:00:00 8.3 8 Sur 26 Sur 0.2 -- -- 99
2019-11-08 11:00:00 7.6 9 Sur 21 Sur 0.2 -- -- 100
2019-11-08 10:00:00 6.5 10 Sur 17 Sur 1.6 -- -- 100
2019-11-08 09:00:00 5.8 9 Sur 25 Sur 2 -- -- 100
2019-11-08 08:00:00 5.8 11 Sur 29 Sur 0.4 -- -- 100
2019-11-08 07:00:00 5.7 12 Sur 29 Sur 1.6 -- -- 99
2019-11-08 06:00:00 5.7 15 Sur 29 Sur 1.2 -- -- 99
2019-11-08 05:00:00 5.4 13 Sur 29 Sur 1.2 -- -- 99
2019-11-08 04:00:00 5 13 Sur 26 Sur 1.2 -- -- 99
2019-11-08 03:00:00 5.3 9 Sur 31 Sur 0.8 -- -- 96
2019-11-08 02:00:00 5.2 15 Sur 29 Sur 0.6 -- -- 96
2019-11-08 01:00:00 4.9 16 Sur 41 Sudeste 0.8 -- -- 95
2019-11-08 00:00:00 5 20 Sur 37 Sur 1 -- -- 95
2019-11-07 23:00:00 5.4 15 Sur 35 Sudoeste 0 -- -- 92
2019-11-07 22:00:00 5.6 18 Sur 37 Sur 0 -- -- 91
2019-11-07 21:00:00 5.5 19 Sur 41 Sur 0 -- -- 92
2019-11-07 20:00:00 5.6 9 Sur 42 Sudeste 0.2 -- -- 92
2019-11-07 19:00:00 5.6 12 Sur 27 Sur 0 -- -- 93
2019-11-07 18:00:00 5.3 10 Sur 33 Sudeste 0.4 -- -- 96
2019-11-07 17:00:00 6.3 12 Nordeste 36 Nordeste 1 -- -- 89
2019-11-07 16:00:00 7.2 26 Sur 45 Sur 0.4 -- -- 92
2019-11-07 15:00:00 7.6 20 Sur 37 Sudeste 0 -- -- 91
2019-11-07 14:00:00 6.4 19 Sur 32 Sudeste 1.4 -- -- 95
2019-11-07 13:00:00 7 20 Sur 40 Sur 0.8 -- -- 94
2019-11-07 12:00:00 6.3 16 Sur 34 Sur 0 -- -- 94
2019-11-07 11:00:00 6.3 19 Sur 50 Sur 1 -- -- 95
2019-11-07 10:00:00 7.3 13 Sur 26 Sur 0 -- -- 94
2019-11-07 09:00:00 6.4 13 Sur 38 Sur 0.8 -- -- 96
2019-11-07 08:00:00 7.1 12 Sur 23 Sudeste 0.6 -- -- 94
2019-11-07 07:00:00 7.2 6 Sur 17 Sur 0 -- -- 96
2019-11-07 06:00:00 7.5 6 Sur 15 Sudeste 0.2 -- -- 96
2019-11-07 05:00:00 7.5 7 Sudoeste 13 Sur 0 -- -- 98
2019-11-07 04:00:00 8 5 Sur 13 Sur 0 -- -- 96
2019-11-07 03:00:00 8.1 9 Sur 19 Sur 0.2 -- -- 95
2019-11-07 02:00:00 7.9 5 Sudoeste 21 Sudeste 0.4 -- -- 96
2019-11-07 01:00:00 8.7 5 Sur 19 Sudeste 0.2 -- -- 94
2019-11-07 00:00:00 9 9 Sudeste 26 Sudeste 0 -- -- 95
2019-11-06 23:00:00 9.8 9 Sudeste 37 Nordeste 0.2 -- -- 97
2019-11-06 22:00:00 11.1 12 Sur 25 Sur 0.2 -- -- 99
2019-11-06 21:00:00 11.9 7 Sudeste 33 Sur 2.4 -- -- 98
2019-11-06 20:00:00 12.3 18 Sur 51 Sur 0.8 -- -- 96
2019-11-06 19:00:00 12.6 23 Sur 53 Sur 0 -- -- 93
2019-11-06 18:00:00 12.6 29 Sur 60 Sur 0.2 -- -- 90
2019-11-06 17:00:00 12.4 18 Sur 50 Sur 0 -- -- 89
2019-11-06 16:00:00 12.7 25 Sur 50 Sur 0 -- -- 87
2019-11-06 15:00:00 12.7 30 Sur 52 Sur 0 -- -- 85
2019-11-06 14:00:00 12.6 36 Sur 63 Sur 0 -- -- 83
2019-11-06 13:00:00 12.5 31 Sur 50 Sudoeste 0.2 -- -- 84
2019-11-06 12:00:00 11.8 25 Sur 40 Sur 0 -- -- 86
2019-11-06 11:00:00 10.8 18 Sur 40 Sudoeste 0 -- -- 94
2019-11-06 10:00:00 10.2 14 Sur 24 Sur 0 -- -- 96
2019-11-06 09:00:00 10 11 Sur 28 Sur 0 -- -- 95
2019-11-06 08:00:00 9.7 17 Sur 27 Sur 0 -- -- 96
2019-11-06 07:00:00 9.6 12 Sur 23 Sur 0 -- -- 98
2019-11-06 06:00:00 9.3 8 Sur 20 Sur 0 -- -- 100
2019-11-06 05:00:00 9 13 Sur 21 Sur 0 -- -- 100
2019-11-06 04:00:00 8.8 8 Sur 13 Sur 0 -- -- 100
2019-11-06 03:00:00 8.5 8 Sur 13 Sur 0 -- -- 100
2019-11-06 02:00:00 8.6 8 Sur 11 Sur 0.4 -- -- 100
2019-11-06 01:00:00 9.2 5 Sur 12 Sudeste 0 -- -- 100
2019-11-06 00:00:00 9.6 8 Sur 14 Sudeste 0.4 -- -- 99
2019-11-05 23:00:00 10 6 Sudeste 19 Este 0.6 -- -- 98
2019-11-05 22:00:00 9.9 6 Sur 12 Este 0.2 -- -- 98
2019-11-05 21:00:00 10 5 Sur 15 Sudeste 1.4 -- -- 97
2019-11-05 20:00:00 10.4 5 Sudoeste 13 Sudeste 0.2 -- -- 95
2019-11-05 19:00:00 10.9 5 Sudeste 13 Sudeste 0 -- -- 93
2019-11-05 18:00:00 11 9 Sur 18 Sudeste 0 -- -- 93
2019-11-05 17:00:00 11.2 6 Sur 15 Oeste 0 -- -- 93
2019-11-05 16:00:00 10.9 8 Sudeste 27 Nordeste 2.4 -- -- 96
2019-11-05 15:00:00 11.3 6 Sudeste 20 Sudeste 0.8 -- -- 96
2019-11-05 14:00:00 11.3 8 Sur 32 Sudeste 3.6 -- -- 96
2019-11-05 13:00:00 11.5 13 Sur 24 Nordeste 0.6 -- -- 95
2019-11-05 12:00:00 11 8 Sudeste 22 Sur 0 -- -- 94
2019-11-05 11:00:00 10.5 14 Sudeste 24 Sudeste 1 -- -- 96
2019-11-05 10:00:00 10.5 16 Sudeste 28 Sudeste 0 -- -- 95
2019-11-05 09:00:00 9.6 12 Sur 21 Sudeste 0 -- -- 99
2019-11-05 08:00:00 9.3 4 Sur 21 Sudeste 0.8 -- -- 98
2019-11-05 07:00:00 9.4 12 Sudeste 25 Sudoeste 0.4 -- -- 97
2019-11-05 06:00:00 9.2 13 Sur 36 Sur 0.6 -- -- 96
2019-11-05 05:00:00 9 15 Sur 32 Sudoeste 0.2 -- -- 95
2019-11-05 04:00:00 9 21 Sur 40 Sur 0 -- -- 93
2019-11-05 03:00:00 8.6 17 Sur 36 Sur 0 -- -- 94
2019-11-05 02:00:00 8.5 18 Sur 44 Sur 0.2 -- -- 92
2019-11-05 01:00:00 8.2 25 Sur 45 Sur 0.8 -- -- 92
2019-11-05 00:00:00 8.4 27 Sur 51 Sur 0 -- -- 89
2019-11-04 23:00:00 9 28 Sur 53 Sur 0 -- -- 87
2019-11-04 22:00:00 9.3 27 Sur 55 Sur 0.2 -- -- 86
2019-11-04 21:00:00 9.4 22 Sur 50 Sur 0 -- -- 89
2019-11-04 20:00:00 8.6 19 Sur 40 Sur 0 -- -- 92
2019-11-04 19:00:00 8.5 12 Sur 29 Sur 1.2 -- -- 95
2019-11-04 18:00:00 9.6 12 Sur 47 Sur 0 -- -- 87
2019-11-04 17:00:00 9.6 33 Sur 55 Sur 0.8 -- -- 83
2019-11-04 16:00:00 11.1 19 Sur 52 Sur 0.6 -- -- 81
2019-11-04 15:00:00 11.9 16 Sur 37 Sur 0 -- -- 82
2019-11-04 14:00:00 11 23 Sur 46 Sudeste 0.2 -- -- 84
2019-11-04 13:00:00 11.5 19 Sur 36 Sur 0 -- -- 87
2019-11-04 12:00:00 11.6 22 Sur 36 Sur 0 -- -- 89
2019-11-04 11:00:00 11.4 18 Sur 49 Sur 0.4 -- -- 92
2019-11-04 10:00:00 12 21 Sur 65 Sur 0 -- -- 86
2019-11-04 09:00:00 12.5 31 Sur 55 Sur 0 -- -- 84
2019-11-04 08:00:00 12.3 22 Sur 57 Sur 0 -- -- 87
2019-11-04 07:00:00 13.2 31 Sur 60 Sur 0 -- -- 88
2019-11-04 06:00:00 13.2 38 Sur 68 Sur 1.6 -- -- 95
2019-11-04 05:00:00 14.1 39 Sur 75 Sur 0 -- -- 90
2019-11-04 04:00:00 14.4 42 Sur 77 Sur 0.4 -- -- 91
2019-11-04 03:00:00 14.1 41 Sur 67 Sur 0.2 -- -- 94
2019-11-04 02:00:00 13.8 37 Sur 68 Sur 0.8 -- -- 96
2019-11-04 01:00:00 13.8 36 Sur 67 Sur 0.6 -- -- 95
2019-11-04 00:00:00 14.7 36 Sur 71 Sur 0.2 -- -- 91
2019-11-03 23:00:00 14.6 41 Sur 77 Sur 0 -- -- 94
2019-11-03 22:00:00 15 37 Sur 63 Sur 0 -- -- 96
2019-11-03 21:00:00 15 32 Sur 66 Sur 0 -- -- 95
2019-11-03 20:00:00 14.6 32 Sur 66 Sur 0 -- -- 94
2019-11-03 19:00:00 14.3 39 Sur 73 Sur 0 -- -- 92
2019-11-03 18:00:00 13.9 42 Sur 79 Sur 0 -- -- 91
2019-11-03 17:00:00 13.3 45 Sur 69 Sur 0.2 -- -- 90
2019-11-03 16:00:00 12.7 41 Sur 63 Sur 0.2 -- -- 91
2019-11-03 15:00:00 13.1 38 Sur 60 Sur 0 -- -- 85
2019-11-03 14:00:00 12.5 34 Sur 61 Sur 0 -- -- 84
2019-11-03 13:00:00 11.7 40 Sur 69 Sur 0 -- -- 88
2019-11-03 12:00:00 11.2 32 Sur 52 Sur 0 -- -- 86
2019-11-03 11:00:00 10.5 27 Sur 45 Sur 0 -- -- 88
2019-11-03 10:00:00 10.3 19 Sur 37 Sur 0 -- -- 91
2019-11-03 09:00:00 9.5 13 Sur 30 Sur 0.2 -- -- 89
2019-11-03 08:00:00 9.8 16 Sur 31 Sur 0 -- -- 85
2019-11-03 07:00:00 9.5 12 Sur 36 Sudeste 0 -- -- 84
2019-11-03 06:00:00 10.1 15 Sur 32 Sudeste 0 -- -- 82
2019-11-03 05:00:00 10.2 21 Sudeste 37 Sur 0 -- -- 84
2019-11-03 04:00:00 10.4 17 Sudeste 49 Sur 0.4 -- -- 85
2019-11-03 03:00:00 10.6 30 Sur 57 Sudeste 0.2 -- -- 89
2019-11-03 02:00:00 12.1 37 Sur 74 Sur 2.2 -- -- 86
2019-11-03 01:00:00 13.1 43 Sur 92 Sur 1.4 -- -- 96
2019-11-03 00:00:00 13 45 Sur 86 Sur 0.2 -- -- 94
2019-11-02 23:00:00 11.9 48 Sur 89 Sur 0 -- -- 94
2019-11-02 22:00:00 11.9 43 Sur 76 Sur 0.2 -- -- 91
2019-11-02 21:00:00 11.4 42 Sur 66 Sur 0.4 -- -- 92
2019-11-02 20:00:00 12.4 35 Sur 65 Sur 0 -- -- 88
2019-11-02 19:00:00 12.1 33 Sur 68 Sur 0.2 -- -- 92
2019-11-02 18:00:00 12.6 35 Sur 65 Sur 0 -- -- 89
2019-11-02 17:00:00 12.9 33 Sur 61 Sur 0.4 -- -- 91
2019-11-02 16:00:00 13.7 29 Sur 57 Sur 0 -- -- 84
2019-11-02 15:00:00 14.4 36 Sur 66 Sur 0 -- -- 78
2019-11-02 14:00:00 14.4 32 Sur 54 Sur 0 -- -- 80
2019-11-02 13:00:00 14.1 31 Sur 55 Sur 0 -- -- 83
2019-11-02 12:00:00 13.7 30 Sur 51 Sur 0 -- -- 85
2019-11-02 11:00:00 13.5 32 Sur 50 Sur 0 -- -- 86
2019-11-02 10:00:00 13.1 26 Sur 57 Sur 0 -- -- 88
2019-11-02 09:00:00 13 26 Sur 44 Sur 0 -- -- 91
2019-11-02 08:00:00 13.3 21 Sur 45 Sur 0 -- -- 90
2019-11-02 07:00:00 13.2 25 Sur 45 Sur 0.2 -- -- 94
2019-11-02 06:00:00 14 21 Sur 46 Sur 0 -- -- 91
2019-11-02 05:00:00 14 19 Sur 42 Sur 0 -- -- 91
2019-11-02 04:00:00 14.4 24 Sur 48 Sur 0 -- -- 87
2019-11-02 03:00:00 14.7 25 Sur 51 Sur 0 -- -- 89
2019-11-02 02:00:00 14.6 30 Sur 50 Sur 0 -- -- 91
2019-11-02 01:00:00 14.9 22 Sur 38 Sur 0 -- -- 94
2019-11-02 00:00:00 15.3 25 Sur 50 Sur 0.2 -- -- 96
2019-11-01 23:00:00 16.3 29 Sur 46 Sur 0 -- -- 94
2019-11-01 22:00:00 16.4 25 Sur 48 Sur 0.8 -- -- 96
2019-11-01 21:00:00 16.3 24 Sur 46 Sur 0.2 -- -- 95
2019-11-01 20:00:00 16 18 Sur 59 Sur 1.6 -- -- 96
2019-11-01 19:00:00 17.1 33 Sur 62 Sur 0.2 -- -- 89
2019-11-01 18:00:00 17.8 31 Sur 57 Sur 0 -- -- 87
2019-11-01 17:00:00 18.2 29 Sur 58 Sur 0 -- -- 87
2019-11-01 16:00:00 18.3 33 Sur 65 Sur 0.6 -- -- 88
2019-11-01 15:00:00 19 32 Sur 66 Sur 0 -- -- 83
2019-11-01 14:00:00 19.8 38 Sur 65 Sur 0 -- -- 81
2019-11-01 13:00:00 19.1 34 Sur 59 Sudeste 0 -- -- 86
2019-11-01 12:00:00 18.2 28 Sur 53 Sur 0.6 -- -- 93
2019-11-01 11:00:00 18.9 28 Sur 47 Sur 0 -- -- 88
2019-11-01 10:00:00 18.8 30 Sur 57 Sur 0 -- -- 88
2019-11-01 09:00:00 18.9 33 Sur 64 Sur 0 -- -- 86
2019-11-01 08:00:00 18.7 33 Sur 58 Sur 0 -- -- 87
2019-11-01 07:00:00 18.6 31 Sur 54 Sur 0 -- -- 87
2019-11-01 06:00:00 18.7 32 Sur 60 Sur 0 -- -- 87
2019-11-01 05:00:00 18.5 36 Sur 60 Sudoeste 0 -- -- 90
2019-11-01 04:00:00 18 28 Sur 53 Sur 0 -- -- 94
2019-11-01 03:00:00 18.3 26 Sur 49 Sur 0 -- -- 89
2019-11-01 02:00:00 18.9 34 Sur 57 Sur 0 -- -- 88
2019-11-01 01:00:00 18.7 26 Sur 55 Sur 0 -- -- 89
2019-11-01 00:00:00 18.4 22 Sur 48 Sur 0 -- -- 92
2019-10-31 23:00:00 18.2 23 Sur 46 Sur 0 -- -- 94
2019-10-31 22:00:00 17.9 23 Sur 46 Sur 1.4 -- -- 95
2019-10-31 21:00:00 19.3 21 Sur 40 Sudoeste 0 -- -- 85
2019-10-31 20:00:00 19.1 21 Sur 40 Sur 0 -- -- 86
2019-10-31 19:00:00 18.9 22 Sur 48 Sur 0 -- -- 87
2019-10-31 18:00:00 18.7 22 Sur 34 Sur 0 -- -- 87
2019-10-31 17:00:00 18.4 15 Sur 28 Sur 0 -- -- 87
2019-10-31 16:00:00 19.3 10 Sur 20 Sur 0 -- -- 80
2019-10-31 15:00:00 19.5 11 Sur 27 Sur 0 -- -- 76
2019-10-31 14:00:00 19.4 11 Sur 30 Sur 0 -- -- 75
2019-10-31 13:00:00 19.4 20 Sur 33 Sur 0 -- -- 75
2019-10-31 12:00:00 18.6 15 Sur 32 Sur 0 -- -- 79
2019-10-31 11:00:00 17.9 15 Sur 28 Sur 0 -- -- 82
2019-10-31 10:00:00 17 16 Sur 27 Sur 0 -- -- 87
2019-10-31 09:00:00 16 13 Sur 24 Sudeste 0 -- -- 92
2019-10-31 08:00:00 15.9 8 Sur 22 Sur 0 -- -- 91
2019-10-31 07:00:00 16.4 12 Sur 31 Sur 0 -- -- 88
2019-10-31 06:00:00 16.7 13 Sur 39 Sudeste 0 -- -- 86
2019-10-31 05:00:00 16.7 18 Sur 32 Sur 0 -- -- 86
2019-10-31 04:00:00 16.7 19 Sur 35 Sudoeste 0 -- -- 86
2019-10-31 03:00:00 16.7 16 Sur 33 Sur 0 -- -- 87
2019-10-31 02:00:00 16.8 18 Sur 42 Sur 0 -- -- 87
2019-10-31 01:00:00 16.8 19 Sur 32 Sur 0 -- -- 87
2019-10-31 00:00:00 16.9 14 Sur 29 Sur 0 -- -- 88
2019-10-30 23:00:00 17 17 Sur 35 Sur 0 -- -- 88
2019-10-30 22:00:00 16.9 16 Sur 31 Sur 0 -- -- 89
2019-10-30 21:00:00 17 13 Sur 23 Sur 0 -- -- 90
2019-10-30 20:00:00 16.7 10 Sur 25 Sur 0 -- -- 93
2019-10-30 19:00:00 17 9 Sur 28 Sur 0 -- -- 91
2019-10-30 18:00:00 17.5 12 Sur 27 Sur 0 -- -- 92
2019-10-30 17:00:00 17.5 13 Sur 31 Sudeste 0.6 -- -- 93
2019-10-30 16:00:00 19.8 19 Sur 46 Sudoeste 0 -- -- 79
2019-10-30 15:00:00 20.9 23 Sur 44 Sur 0 -- -- 73
2019-10-30 14:00:00 21.2 28 Sur 50 Sudoeste 0 -- -- 71
2019-10-30 13:00:00 20.1 28 Sur 57 Sur 0 -- -- 74
2019-10-30 12:00:00 19.8 33 Sur 54 Sur 0 -- -- 73
2019-10-30 11:00:00 19.4 29 Sur 57 Sur 0 -- -- 73
2019-10-30 10:00:00 18.4 30 Sur 55 Sur 0 -- -- 78
2019-10-30 09:00:00 16.5 18 Sur 39 Sur 0.4 -- -- 89
2019-10-30 08:00:00 16.3 22 Sur 49 Sur 0.8 -- -- 89
2019-10-30 07:00:00 18.5 22 Sur 46 Sur 0 -- -- 74
2019-10-30 06:00:00 18.5 25 Sur 48 Sur 0 -- -- 75
2019-10-30 05:00:00 17.6 18 Sur 45 Sur 0 -- -- 78
2019-10-30 04:00:00 18 26 Sur 42 Sur 0 -- -- 77
2019-10-30 03:00:00 16.7 7 Sur 25 Sur 0 -- -- 83
2019-10-30 02:00:00 16.5 14 Sur 30 Sur 0 -- -- 84
2019-10-30 01:00:00 17.4 12 Sur 33 Sur 0 -- -- 81
2019-10-30 00:00:00 17.1 17 Sur 27 Sur 0 -- -- 82
2019-10-29 23:00:00 16.5 10 Sur 27 Sur 0 -- -- 84
2019-10-29 22:00:00 16.3 11 Sur 28 Sur 0 -- -- 86
2019-10-29 21:00:00 15.7 10 Sur 17 Sur 0 -- -- 88
2019-10-29 20:00:00 16.7 3 Sur 14 Sur 0 -- -- 86
2019-10-29 19:00:00 18.1 5 Sudoeste 30 Sur 0 -- -- 77
2019-10-29 18:00:00 18.6 12 Sur 23 Sur 0 -- -- 75
2019-10-29 17:00:00 19.5 8 Sur 20 Sur 0 -- -- 71
2019-10-29 16:00:00 20.1 13 Sur 29 Sur 0 -- -- 67
2019-10-29 15:00:00 20.2 16 Sur 31 Sur 0 -- -- 65
2019-10-29 14:00:00 20.4 20 Sur 32 Sur 0 -- -- 64
2019-10-29 13:00:00 19.3 18 Sur 40 Sur 0 -- -- 69
2019-10-29 12:00:00 18.5 19 Sur 33 Sudeste 0 -- -- 71
2019-10-29 11:00:00 18 24 Sur 40 Sur 0 -- -- 71
2019-10-29 10:00:00 16.9 19 Sur 39 Sur 0 -- -- 78
2019-10-29 09:00:00 15.8 20 Sur 43 Sur 0 -- -- 81
2019-10-29 08:00:00 15.5 18 Sur 39 Sudoeste 0 -- -- 83
2019-10-29 07:00:00 15.5 18 Sur 38 Sur 0 -- -- 86
2019-10-29 06:00:00 15.1 18 Sur 33 Sur 0 -- -- 89
2019-10-29 05:00:00 14.8 10 Sudoeste 21 Sur 0 -- -- 92
2019-10-29 04:00:00 15 10 Sur 41 Sur 0.2 -- -- 95
2019-10-29 03:00:00 15.5 21 Sur 37 Sur 1.4 -- -- 94
2019-10-29 02:00:00 16.8 7 Sur 22 Sur 0 -- -- 87
2019-10-29 01:00:00 18.2 12 Sur 37 Sur 0 -- -- 78
2019-10-29 00:00:00 18.9 21 Sur 40 Sur 0 -- -- 73
2019-10-28 23:00:00 18.8 13 Sur 30 Sur 0 -- -- 74
2019-10-28 22:00:00 18.5 13 Sur 42 Sudeste 0 -- -- 78
2019-10-28 21:00:00 18.5 19 Sur 35 Sur 0 -- -- 79
2019-10-28 20:00:00 17.9 11 Sur 21 Sur 0 -- -- 82
2019-10-28 19:00:00 18.6 14 Sur 31 Sur 0 -- -- 78
2019-10-28 18:00:00 19.3 13 Sur 42 Sudoeste 0 -- -- 75
2019-10-28 17:00:00 20.7 15 Sur 30 Sur 0 -- -- 67
2019-10-28 16:00:00 21.4 18 Sur 38 Sur 0 -- -- 65
2019-10-28 15:00:00 22.7 16 Sur 32 Sur 0 -- -- 61
2019-10-28 14:00:00 21.7 6 Sur 12 Sur 0 -- -- 66
2019-10-28 13:00:00 20.6 12 Sur 24 Sur 0 -- -- 67
2019-10-28 12:00:00 19.2 4 Sur 25 Sur 0 -- -- 67
2019-10-28 11:00:00 18.8 2 Noroeste 17 Sur 0 -- -- 72
2019-10-28 10:00:00 17.1 5 Sur 10 Sur 0 -- -- 72
2019-10-28 09:00:00 15.1 0 Calma 6 Norte 0 -- -- 71
2019-10-28 08:00:00 15.1 2 Norte 9 Norte 0 -- -- 70
2019-10-28 07:00:00 14.6 2 Norte 6 Sur 0 -- -- 71
2019-10-28 06:00:00 14 4 Sur 8 Sur 0 -- -- 75
2019-10-28 05:00:00 14.8 2 Sudoeste 8 Sur 0 -- -- 73
2019-10-28 04:00:00 15.2 5 Sur 11 Sur 0 -- -- 73
2019-10-28 03:00:00 14.9 6 Sur 10 Sur 0 -- -- 75
2019-10-28 02:00:00 15.7 3 Norte 6 Norte 0 -- -- 71
2019-10-28 01:00:00 15.4 0 Calma 7 Sur 0 -- -- 71
2019-10-28 00:00:00 15 6 Sur 7 Sur 0 -- -- 74
2019-10-27 23:00:00 15.4 5 Sur 11 Sur 0 -- -- 74
2019-10-27 22:00:00 15.5 5 Sur 9 Sudoeste 0 -- -- 79
2019-10-27 21:00:00 15.4 6 Sur 15 Sudeste 0 -- -- 82
2019-10-27 20:00:00 16.7 5 Nordeste 12 Sur 0 -- -- 80
2019-10-27 19:00:00 17.7 6 Norte 8 Norte 0 -- -- 79
2019-10-27 18:00:00 18.7 0 Calma 6 Sudeste 0 -- -- 80
2019-10-27 17:00:00 19.2 6 Norte 8 Nordeste 0 -- -- 78
2019-10-27 16:00:00 21.1 3 Norte 9 Noroeste 0 -- -- 68
2019-10-27 15:00:00 22.1 5 Norte 15 Norte 0 -- -- 58
2019-10-27 14:00:00 22.1 5 Norte 9 Norte 0 -- -- 57
2019-10-27 13:00:00 21.7 4 Norte 8 Norte 0 -- -- 58
2019-10-27 12:00:00 20.7 3 Sur 12 Sur 0 -- -- 57
2019-10-27 11:00:00 20.1 4 Sudeste 12 Sudoeste 0 -- -- 62
2019-10-27 10:00:00 17.5 10 Sur 13 Sudoeste 0 -- -- 63
2019-10-27 09:00:00 17.7 6 Sur 15 Sur 0 -- -- 58
2019-10-27 08:00:00 17.2 11 Sur 17 Sur 0 -- -- 60
2019-10-27 07:00:00 17.3 5 Sudoeste 10 Sur 0 -- -- 61
2019-10-27 06:00:00 17.5 0 Calma 16 Sur 0 -- -- 58
2019-10-27 05:00:00 18.3 13 Sur 22 Sur 0 -- -- 56
2019-10-27 04:00:00 19.4 14 Sur 30 Sur 0 -- -- 51
2019-10-27 03:00:00 20.5 17 Sur 38 Sur 0 -- -- 47
2019-10-27 02:00:00 19.8 20 Sur 39 Sur 0 -- -- 49
2019-10-27 01:00:00 18.2 8 Sur 32 Sudeste 0 -- -- 58
2019-10-27 00:00:00 17.3 5 Sudoeste 17 Sur 0 -- -- 60
2019-10-26 23:00:00 17.1 4 Sur 9 Sur 0 -- -- 63
2019-10-26 22:00:00 19.1 4 Sudoeste 32 Sur 0 -- -- 54
2019-10-26 21:00:00 20.8 19 Sur 35 Sur 0 -- -- 47
2019-10-26 20:00:00 20.1 5 Noroeste 22 Sudoeste 0 -- -- 49
2019-10-26 19:00:00 21.7 11 Sur 26 Sur 0 -- -- 46
2019-10-26 18:00:00 22.7 9 Sur 32 Sur 0 -- -- 43
2019-10-26 17:00:00 24.6 23 Sur 40 Sur 0 -- -- 35
2019-10-26 16:00:00 24.3 23 Sur 44 Sur 0 -- -- 35
2019-10-26 15:00:00 24.2 23 Sur 40 Sur 0 -- -- 34
2019-10-26 14:00:00 23.3 18 Sur 46 Sur 0 -- -- 34
2019-10-26 13:00:00 23.1 20 Sur 44 Sur 0 -- -- 37
2019-10-26 12:00:00 21.7 28 Sur 53 Sur 0 -- -- 41
2019-10-26 11:00:00 18.8 23 Sur 44 Sur 0 -- -- 51
2019-10-26 10:00:00 17.8 23 Sur 46 Sur 0 -- -- 53
2019-10-26 09:00:00 19.3 30 Sur 54 Sur 0 -- -- 45
2019-10-26 08:00:00 18.4 21 Sur 51 Sur 0 -- -- 48
2019-10-26 07:00:00 17.7 29 Sur 48 Sur 0 -- -- 53
2019-10-26 06:00:00 18.5 27 Sur 48 Sur 0 -- -- 51
2019-10-26 05:00:00 17.7 33 Sur 54 Sur 0 -- -- 54
2019-10-26 04:00:00 18.6 35 Sur 60 Sur 0 -- -- 51
2019-10-26 03:00:00 18.5 35 Sur 59 Sur 0 -- -- 52
2019-10-26 02:00:00 17.1 27 Sur 42 Sur 0 -- -- 60
2019-10-26 01:00:00 13.7 5 Noroeste 30 Sur 0 -- -- 76
2019-10-26 00:00:00 13.5 4 Nordeste 8 Nordeste 0 -- -- 78
2019-10-25 23:00:00 13.8 0 Calma 7 Sur 0 -- -- 76
2019-10-25 22:00:00 14.2 2 Noroeste 5 Noroeste 0 -- -- 77
2019-10-25 21:00:00 14.6 0 Calma 5 Sur 0 -- -- 78
2019-10-25 20:00:00 15.5 0 Calma 5 Norte 0 -- -- 75
2019-10-25 19:00:00 17.2 3 Norte 12 Sudoeste 0 -- -- 71
2019-10-25 18:00:00 20.2 6 Sudoeste 25 Sur 0 -- -- 56
2019-10-25 17:00:00 20.9 16 Sur 29 Sur 0 -- -- 53
2019-10-25 16:00:00 20.5 20 Sur 34 Sur 0 -- -- 55
2019-10-25 15:00:00 19.8 15 Sur 31 Sur 0 -- -- 61
2019-10-25 14:00:00 18.5 17 Sur 32 Sur 0 -- -- 66
2019-10-25 13:00:00 16.5 4 Norte 10 Norte 0 -- -- 77
2019-10-25 12:00:00 14.3 8 Norte 10 Norte 0 -- -- 86
2019-10-25 11:00:00 12.4 8 Nordeste 10 Nordeste 0 -- -- 90
2019-10-25 10:00:00 10.7 4 Norte 8 Sur 0 -- -- 95
2019-10-25 09:00:00 9.6 0 Calma 4 Sudoeste 0 -- -- 94
2019-10-25 08:00:00 9.8 2 Sudoeste 8 Sur 0 -- -- 93
2019-10-25 07:00:00 10.6 0 Calma 8 Nordeste 0 -- -- 89
2019-10-25 06:00:00 11.7 5 Nordeste 19 Sur 0 -- -- 87
2019-10-25 05:00:00 13 8 Sudoeste 37 Sur 0 -- -- 83
2019-10-25 04:00:00 13.8 23 Sur 56 Sur 0 -- -- 82
2019-10-25 03:00:00 14 29 Sur 50 Sur 0 -- -- 82
2019-10-25 02:00:00 14.2 22 Sur 47 Sur 0 -- -- 82
2019-10-25 01:00:00 14.2 23 Sur 48 Sudoeste 0 -- -- 83
2019-10-25 00:00:00 14.5 23 Sur 43 Sur 0 -- -- 82
2019-10-24 23:00:00 14.5 22 Sur 46 Sudoeste 0 -- -- 82
2019-10-24 22:00:00 14.7 22 Sur 40 Sur 0 -- -- 84
2019-10-24 21:00:00 14.7 17 Sur 54 Sur 0 -- -- 84
2019-10-24 20:00:00 14.6 28 Sur 49 Sur 0 -- -- 88
2019-10-24 19:00:00 15.2 28 Sur 53 Sur 0 -- -- 87
2019-10-24 18:00:00 15.8 27 Sur 54 Sur 0 -- -- 86
2019-10-24 17:00:00 15.6 26 Sur 46 Sur 0 -- -- 90
2019-10-24 16:00:00 14.9 20 Sur 46 Sur 0.2 -- -- 93
2019-10-24 15:00:00 15.5 27 Sur 44 Sur 0 -- -- 86
2019-10-24 14:00:00 15.9 31 Sur 50 Sur 0 -- -- 86
2019-10-24 13:00:00 14.7 30 Sur 50 Sur 0 -- -- 87
2019-10-24 12:00:00 14.2 30 Sur 59 Sur 0 -- -- 88
2019-10-24 11:00:00 13.6 30 Sur 64 Sudoeste 0 -- -- 89
2019-10-24 10:00:00 13.4 30 Sur 63 Sur 0 -- -- 89
2019-10-24 09:00:00 12.8 31 Sur 55 Sur 0.2 -- -- 91
2019-10-24 08:00:00 12.1 26 Sur 47 Sur 0.4 -- -- 93
2019-10-24 07:00:00 12 24 Sur 49 Sur 0 -- -- 91
2019-10-24 06:00:00 11.2 22 Sur 46 Sur 0 -- -- 93
2019-10-24 05:00:00 10.9 26 Sur 41 Sur 0 -- -- 91
2019-10-24 04:00:00 11.1 20 Sur 36 Sur 0 -- -- 88
2019-10-24 03:00:00 10.8 19 Sur 32 Sur 0 -- -- 91
2019-10-24 02:00:00 10.5 14 Sur 30 Sur 0 -- -- 94
2019-10-24 01:00:00 9.4 7 Sudoeste 15 Sur 0 -- -- 97
2019-10-24 00:00:00 8.8 7 Sur 12 Sur 0 -- -- 97
2019-10-23 23:00:00 8.9 7 Sur 12 Sur 0 -- -- 97
2019-10-23 22:00:00 8.8 5 Sur 6 Sur 0 -- -- 95
2019-10-23 21:00:00 9.9 3 Sur 10 Sur 0 -- -- 91
2019-10-23 20:00:00 11.5 8 Nordeste 13 Nordeste 0 -- -- 86
2019-10-23 19:00:00 11.9 9 Norte 14 Norte 0 -- -- 86
2019-10-23 18:00:00 12.1 8 Nordeste 31 Norte 0 -- -- 86
2019-10-23 17:00:00 12.3 18 Norte 34 Norte 0 -- -- 87
2019-10-23 16:00:00 12.6 22 Norte 38 Norte 0 -- -- 83
2019-10-23 15:00:00 12.8 26 Norte 39 Norte 0 -- -- 83
2019-10-23 14:00:00 12.2 20 Norte 36 Norte 0 -- -- 87
2019-10-23 13:00:00 12.5 18 Norte 29 Norte 0 -- -- 88
2019-10-23 12:00:00 12 16 Norte 25 Norte 0 -- -- 92
2019-10-23 11:00:00 11.5 16 Norte 21 Norte 0 -- -- 95
2019-10-23 10:00:00 10.8 11 Norte 20 Norte 0 -- -- 96
2019-10-23 09:00:00 10.6 13 Norte 21 Norte 0 -- -- 96
2019-10-23 08:00:00 10.8 14 Norte 21 Norte 0 -- -- 95
2019-10-23 07:00:00 10.9 15 Norte 23 Norte 0 -- -- 95
2019-10-23 06:00:00 11 17 Norte 28 Norte 0 -- -- 95
2019-10-23 05:00:00 11.1 19 Norte 32 Norte 0 -- -- 96
2019-10-23 04:00:00 11.3 19 Norte 30 Norte 0 -- -- 99
2019-10-23 03:00:00 10.9 16 Norte 23 Norte 0 -- -- 100
2019-10-23 02:00:00 10.8 13 Norte 17 Norte 0 -- -- 100
2019-10-23 01:00:00 10.9 9 Norte 15 Norte 0 -- -- 100
2019-10-23 00:00:00 10.9 9 Norte 15 Norte 0 -- -- 100
2019-10-22 23:00:00 10.5 12 Norte 21 Norte 2 -- -- 100
2019-10-22 22:00:00 10.6 3 Norte 10 Norte 0 -- -- 99
2019-10-22 21:00:00 10.7 8 Norte 15 Norte 0 -- -- 98
2019-10-22 20:00:00 10.5 7 Norte 13 Norte 0 -- -- 96
2019-10-22 19:00:00 11.3 10 Norte 27 Norte 0 -- -- 92
2019-10-22 18:00:00 12.4 20 Norte 30 Norte 0 -- -- 85
2019-10-22 17:00:00 13.5 17 Norte 30 Norte 0 -- -- 85
2019-10-22 16:00:00 13.2 23 Norte 35 Norte 0 -- -- 86
2019-10-22 15:00:00 12.4 22 Norte 32 Norte 0 -- -- 90
2019-10-22 14:00:00 12.3 15 Norte 21 Norte 0 -- -- 92
2019-10-22 13:00:00 12 11 Norte 15 Norte 0 -- -- 92
2019-10-22 12:00:00 10.5 7 Norte 9 Norte 0 -- -- 95
2019-10-22 11:00:00 8 3 Sudeste 8 Sur 0 -- -- 100
2019-10-22 10:00:00 5.6 4 Sur 8 Sur 0 -- -- 100
2019-10-22 09:00:00 4.9 5 Sur 9 Sur 0 -- -- 100
2019-10-22 08:00:00 5.2 7 Sur 9 Sur 0.2 -- -- 100
2019-10-22 07:00:00 5.3 2 Sur 6 Sur 0 -- -- 100
2019-10-22 06:00:00 5.2 3 Sudoeste 5 Sur 0 -- -- 100
2019-10-22 05:00:00 5.5 4 Sur 5 Sur 0 -- -- 100
2019-10-22 04:00:00 5.8 3 Sur 6 Sur 0 -- -- 100
2019-10-22 03:00:00 6.3 0 Calma 8 Sur 0 -- -- 100
2019-10-22 02:00:00 6.3 2 Sur 5 Sudoeste 0 -- -- 100
2019-10-22 01:00:00 6.8 3 Norte 6 Nordeste 0 -- -- 99
2019-10-22 00:00:00 7.1 3 Norte 7 Norte 0 -- -- 100
2019-10-21 23:00:00 7.2 2 Nordeste 8 Nordeste 0 -- -- 100
2019-10-21 22:00:00 8 3 Norte 9 Nordeste 0.2 -- -- 100
2019-10-21 21:00:00 8.6 2 Norte 17 Noroeste 0.2 -- -- 100
2019-10-21 20:00:00 9.3 11 Norte 16 Norte 0.8 -- -- 98
2019-10-21 19:00:00 10 9 Norte 14 Norte 0.2 -- -- 96
2019-10-21 18:00:00 10.6 7 Norte 19 Norte 0 -- -- 92
2019-10-21 17:00:00 10.8 12 Norte 16 Norte 0 -- -- 94
2019-10-21 16:00:00 10.7 14 Norte 23 Norte 0.6 -- -- 96
2019-10-21 15:00:00 11.5 15 Norte 22 Norte 0 -- -- 88
2019-10-21 14:00:00 11.5 15 Norte 24 Norte 0 -- -- 86
2019-10-21 13:00:00 11.9 3 Sudeste 12 Sur 0 -- -- 91
2019-10-21 12:00:00 10.2 9 Sur 18 Sur 0 -- -- 100
2019-10-21 11:00:00 8.9 12 Sur 14 Sur 0 -- -- 100
2019-10-21 10:00:00 8.4 5 Sur 14 Sur 0 -- -- 100
2019-10-21 09:00:00 8.3 5 Sur 19 Norte 1.4 -- -- 100
2019-10-21 08:00:00 8.2 8 Sur 11 Sudoeste 0 -- -- 100
2019-10-21 07:00:00 8.2 7 Sur 12 Sur 0 -- -- 100
2019-10-21 06:00:00 8.1 6 Sur 13 Sur 0.4 -- -- 100
2019-10-21 05:00:00 8 6 Sur 9 Sur 0 -- -- 100
2019-10-21 04:00:00 8.7 3 Sudoeste 10 Sur 2 -- -- 100
2019-10-21 03:00:00 9.1 0 Calma 9 Nordeste 1.4 -- -- 100
2019-10-21 02:00:00 8.4 5 Sur 10 Sur 0 -- -- 100
2019-10-21 01:00:00 9.1 6 Sur 10 Sur 1.4 -- -- 100
2019-10-21 00:00:00 9.4 5 Sur 12 Sur 0 -- -- 100
2019-10-20 23:00:00 9.5 5 Sur 9 Sur 0.4 -- -- 100
2019-10-20 22:00:00 9.4 6 Sur 10 Sur 0 -- -- 100
2019-10-20 21:00:00 10.1 4 Sur 9 Norte 0.6 -- -- 100
2019-10-20 20:00:00 10.6 0 Calma 6 Sudoeste 0.2 -- -- 100
2019-10-20 19:00:00 11 4 Sur 7 Sur 0 -- -- 99
2019-10-20 18:00:00 10.5 3 Sur 10 Sur 0.2 -- -- 98
2019-10-20 17:00:00 10.8 5 Sur 16 Sudoeste 4.6 -- -- 93
2019-10-20 16:00:00 11.6 4 Sur 7 Sur 0 -- -- 96
2019-10-20 15:00:00 10.5 7 Sur 15 Sur 0.2 -- -- 98
2019-10-20 14:00:00 11.4 2 Este 13 Sudeste 0.6 -- -- 99
2019-10-20 13:00:00 10.7 8 Sudeste 14 Sudeste 0.6 -- -- 100
2019-10-20 12:00:00 10.5 6 Sur 12 Sur 0 -- -- 100
2019-10-20 11:00:00 9.4 5 Sur 8 Sur 0 -- -- 100
2019-10-20 10:00:00 9 4 Sur 9 Sur 0 -- -- 100
2019-10-20 09:00:00 9.2 4 Sur 13 Noroeste 1.4 -- -- 100
2019-10-20 08:00:00 9 4 Sudoeste 13 Sur 0.4 -- -- 100
2019-10-20 07:00:00 8.9 4 Sur 9 Sudoeste 1.8 -- -- 100
2019-10-20 06:00:00 8.8 5 Sudoeste 14 Sur 2 -- -- 100
2019-10-20 05:00:00 8.4 7 Sur 14 Sur 0.8 -- -- 100
2019-10-20 04:00:00 8.3 7 Sur 10 Sur 0.8 -- -- 100
2019-10-20 03:00:00 8.4 3 Sudoeste 7 Sur 1.6 -- -- 100
2019-10-20 02:00:00 8.6 2 Sur 8 Noroeste 0.8 -- -- 100
2019-10-20 01:00:00 9.1 6 Norte 19 Nordeste 1.6 -- -- 100
2019-10-20 00:00:00 9.4 10 Norte 20 Norte 4.8 -- -- 100
2019-10-19 23:00:00 9.5 6 Nordeste 27 Noroeste 2.4 -- -- 100
2019-10-19 22:00:00 9.8 19 Norte 31 Norte 1.2 -- -- 100
2019-10-19 21:00:00 9.6 9 Norte 15 Norte 1.2 -- -- 100
2019-10-19 20:00:00 9.7 5 Norte 10 Norte 0.2 -- -- 100
2019-10-19 19:00:00 9.9 6 Norte 14 Norte 0.2 -- -- 100
2019-10-19 18:00:00 10 7 Norte 15 Norte 0.2 -- -- 100
2019-10-19 17:00:00 9.8 9 Norte 27 Norte 1 -- -- 100
2019-10-19 16:00:00 10.6 6 Norte 10 Norte 2.4 -- -- 100
2019-10-19 15:00:00 10.8 4 Norte 14 Norte 1.8 -- -- 100
2019-10-19 14:00:00 11.7 4 Norte 8 Norte 1.2 -- -- 100
2019-10-19 13:00:00 11.5 0 Calma 9 Sur 0.6 -- -- 100
2019-10-19 12:00:00 11.4 6 Sur 9 Sur 1 -- -- 100
2019-10-19 11:00:00 11.3 5 Sur 8 Sur 0.8 -- -- 100
2019-10-19 10:00:00 11.2 3 Sudoeste 8 Sur 2 -- -- 100
2019-10-19 09:00:00 11.2 4 Sur 13 Sur 1.6 -- -- 100
2019-10-19 08:00:00 -- 4 Sur 15 Sur 0 -- -- --
2019-10-19 07:00:00 11.6 5 Sur 12 Sur 0.2 -- -- 100
2019-10-19 06:00:00 11.8 7 Sur 23 Sur 0 -- -- 99
2019-10-19 05:00:00 11.9 7 Sur 21 Sudeste 0.8 -- -- 100
2019-10-19 04:00:00 -- 4 Sur 21 Sur 0.4 -- -- --
2019-10-19 03:00:00 12.3 3 Sudoeste 22 Sur 1 -- -- 100
2019-10-19 02:00:00 12.4 8 Sur 17 Sur 2 -- -- 100
2019-10-19 01:00:00 12.4 10 Sur 37 Sur 1.4 -- -- 99
2019-10-19 00:00:00 12.9 21 Sur 42 Sur 0.4 -- -- 97
2019-10-18 23:00:00 13.1 24 Sur 46 Sur 0.6 -- -- 96
2019-10-18 22:00:00 12.8 22 Sur 38 Sur 2.2 -- -- 97
2019-10-18 21:00:00 13.2 19 Sur 45 Sur 0.4 -- -- 95
2019-10-18 20:00:00 12.9 13 Sur 34 Sur 1.2 -- -- 95
2019-10-18 19:00:00 15.1 24 Sur 44 Sur 0 -- -- 80
2019-10-18 18:00:00 15.3 25 Sur 45 Sur 0 -- -- 78
2019-10-18 17:00:00 15.1 28 Sur 51 Sudoeste 0 -- -- 78
2019-10-18 16:00:00 14.7 24 Sur 43 Sur 0 -- -- 80
2019-10-18 15:00:00 14.1 10 Sur 31 Sur 0 -- -- 84
2019-10-18 14:00:00 13.7 23 Sur 39 Sur 0 -- -- 87
2019-10-18 13:00:00 14.1 27 Sur 42 Sur 0 -- -- 81
2019-10-18 12:00:00 13.8 17 Sur 31 Sudoeste 0 -- -- 82
2019-10-18 11:00:00 13.4 19 Sur 32 Sudoeste 0 -- -- 84
2019-10-18 10:00:00 12.3 22 Sur 35 Sur 0 -- -- 90
2019-10-18 09:00:00 12.2 16 Sur 32 Sur 0 -- -- 89
2019-10-18 08:00:00 12.6 17 Sur 31 Sur 0 -- -- 85
2019-10-18 07:00:00 12.3 17 Sur 31 Sur 0 -- -- 87
2019-10-18 06:00:00 12.3 15 Sur 28 Sur 0 -- -- 87
2019-10-18 05:00:00 12.2 15 Sur 36 Sur 0 -- -- 89
2019-10-18 04:00:00 12.2 14 Sur 38 Sur 0 -- -- 89
2019-10-18 03:00:00 13 23 Sur 38 Sudeste 0 -- -- 81
2019-10-18 02:00:00 12.9 19 Sur 38 Sur 0 -- -- 80
2019-10-18 01:00:00 12.9 13 Sur 36 Sur 0 -- -- 82
2019-10-18 00:00:00 13.1 20 Sur 39 Sur 0 -- -- 83